Time;durP1;ratioP1;P1;durP2;ratioP2;P2;SDS_P1;SDS_P2;PMS_P1;PMS_P2;Temp;Humidity;BMP_temperature;BMP_pressure;BME280_temperature;BME280_humidity;BME280_pressure;Samples;Min_cycle;Max_cycle;Signal;HPM_P1;HPM_P2
2023/02/04 00:00:59;;;;;;;35.35;4.95;;;;;;;;;;4970410;28;20015;-68
2023/02/04 00:03:24;;;;;;;30.60;5.23;;;;;;;;;;4970711;28;20030;-68
2023/02/04 00:05:50;;;;;;;32.17;4.68;;;;;;;;;;4971448;28;20627;-68
2023/02/04 00:08:15;;;;;;;32.07;4.80;;;;;;;;;;4966529;28;20510;-68
2023/02/04 00:10:40;;;;;;;37.45;6.75;;;;;;;;;;4974518;28;20289;-68
2023/02/04 00:13:05;;;;;;;45.33;4.13;;;;;;;;;;4970599;28;20023;-68
2023/02/04 00:15:30;;;;;;;30.92;4.65;;;;;;;;;;4965323;28;20494;-68
2023/02/04 00:17:56;;;;;;;33.97;3.90;;;;;;;;;;4976790;28;20031;-68
2023/02/04 00:20:21;;;;;;;36.88;4.45;;;;;;;;;;4972977;28;20290;-68
2023/02/04 00:22:46;;;;;;;25.50;4.72;;;;;;;;;;4965718;28;20070;-68
2023/02/04 00:25:11;;;;;;;25.85;4.47;;;;;;;;;;4968930;28;20058;-68
2023/02/04 00:27:37;;;;;;;19.93;4.53;;;;;;;;;;4970651;28;20451;-68
2023/02/04 00:30:06;;;;;;;35.70;4.88;;;;;;;;;;4969056;28;20281;-67
2023/02/04 00:32:31;;;;;;;30.83;5.18;;;;;;;;;;4964474;28;20018;-67
2023/02/04 00:34:56;;;;;;;23.13;4.20;;;;;;;;;;4969448;28;20011;-67
2023/02/04 00:37:22;;;;;;;28.77;4.40;;;;;;;;;;4970302;28;20026;-67
2023/02/04 00:39:47;;;;;;;35.33;4.75;;;;;;;;;;4963583;28;20384;-67
2023/02/04 00:42:12;;;;;;;36.90;5.25;;;;;;;;;;4964587;28;20102;-68
2023/02/04 00:44:37;;;;;;;41.05;5.53;;;;;;;;;;4967656;28;20041;-67
2023/02/04 00:47:02;;;;;;;36.80;6.53;;;;;;;;;;4965453;28;20105;-68
2023/02/04 00:49:28;;;;;;;28.67;5.43;;;;;;;;;;4966219;28;20105;-67
2023/02/04 00:51:53;;;;;;;45.10;4.80;;;;;;;;;;4966692;28;20042;-67
2023/02/04 00:54:18;;;;;;;33.07;3.80;;;;;;;;;;4964671;28;20357;-67
2023/02/04 00:56:43;;;;;;;35.88;5.70;;;;;;;;;;4967635;28;20821;-67
2023/02/04 00:59:09;;;;;;;32.92;4.85;;;;;;;;;;4967597;28;20399;-68
2023/02/04 01:01:34;;;;;;;32.25;5.90;;;;;;;;;;4968262;28;20038;-68
2023/02/04 01:03:59;;;;;;;36.67;4.85;;;;;;;;;;4966663;28;20031;-68
2023/02/04 01:06:25;;;;;;;31.43;5.33;;;;;;;;;;4970313;28;20081;-67
2023/02/04 01:08:50;;;;;;;32.80;4.07;;;;;;;;;;4969070;28;20273;-67
2023/02/04 01:11:15;;;;;;;32.97;5.63;;;;;;;;;;4961123;28;20022;-67
2023/02/04 01:13:41;;;;;;;29.73;6.53;;;;;;;;;;4961239;28;20019;-68
2023/02/04 01:16:06;;;;;;;38.75;5.47;;;;;;;;;;4967915;28;20026;-68
2023/02/04 01:18:31;;;;;;;28.97;4.30;;;;;;;;;;4965276;28;20129;-67
2023/02/04 01:20:56;;;;;;;38.07;5.07;;;;;;;;;;4966052;28;20338;-67
2023/02/04 01:23:21;;;;;;;43.08;5.60;;;;;;;;;;4969118;28;20332;-68
2023/02/04 01:25:46;;;;;;;36.90;4.30;;;;;;;;;;4962468;28;20027;-67
2023/02/04 01:28:12;;;;;;;31.27;5.00;;;;;;;;;;4948256;28;20305;-68
2023/02/04 01:30:37;;;;;;;44.00;5.97;;;;;;;;;;4967112;28;20645;-67
2023/02/04 01:33:02;;;;;;;42.63;5.63;;;;;;;;;;4968187;28;20270;-68
2023/02/04 01:35:27;;;;;;;40.77;5.77;;;;;;;;;;4968932;28;20742;-68
2023/02/04 01:37:52;;;;;;;38.47;6.03;;;;;;;;;;4966184;28;20307;-67
2023/02/04 01:40:18;;;;;;;33.17;5.55;;;;;;;;;;4969603;28;20666;-68
2023/02/04 01:42:43;;;;;;;28.48;4.75;;;;;;;;;;4964554;28;20506;-68
2023/02/04 01:45:08;;;;;;;31.23;5.80;;;;;;;;;;4967093;28;20023;-68
2023/02/04 01:47:33;;;;;;;40.70;4.68;;;;;;;;;;4966046;28;20026;-67
2023/02/04 01:49:59;;;;;;;44.13;5.43;;;;;;;;;;4969850;28;20050;-67
2023/02/04 01:52:24;;;;;;;31.73;3.95;;;;;;;;;;4963397;28;20023;-68
2023/02/04 01:54:50;;;;;;;30.90;5.45;;;;;;;;;;4968982;28;20260;-67
2023/02/04 01:57:16;;;;;;;40.47;4.85;;;;;;;;;;4967756;28;20033;-67
2023/02/04 01:59:45;;;;;;;29.92;6.85;;;;;;;;;;4966467;28;20027;-67
2023/02/04 02:02:29;;;;;;;28.90;4.40;;;;;;;;;;4965210;28;20019;-68
2023/02/04 02:04:55;;;;;;;30.13;4.43;;;;;;;;;;4965578;28;20023;-68
2023/02/04 02:07:20;;;;;;;35.20;5.68;;;;;;;;;;4966117;28;20023;-68
2023/02/04 02:09:45;;;;;;;40.93;6.17;;;;;;;;;;4968751;28;20162;-68
2023/02/04 02:12:10;;;;;;;34.10;5.13;;;;;;;;;;4968030;28;20278;-68
2023/02/04 02:14:35;;;;;;;45.63;6.03;;;;;;;;;;4966042;28;20616;-68
2023/02/04 02:17:01;;;;;;;45.07;6.27;;;;;;;;;;4966330;28;20031;-67
2023/02/04 02:19:27;;;;;;;41.22;4.78;;;;;;;;;;4963689;28;20762;-66
2023/02/04 02:21:57;;;;;;;38.53;5.30;;;;;;;;;;4964347;28;20391;-67
2023/02/04 02:24:32;;;;;;;35.05;5.18;;;;;;;;;;4962675;28;20040;-68
2023/02/04 02:27:02;;;;;;;30.17;6.05;;;;;;;;;;4964810;28;20244;-67
2023/02/04 02:29:28;;;;;;;40.60;6.68;;;;;;;;;;4969211;28;20023;-67
2023/02/04 02:31:56;;;;;;;45.20;6.15;;;;;;;;;;4964385;28;20043;-68
2023/02/04 02:34:21;;;;;;;34.42;4.43;;;;;;;;;;4968050;28;20578;-68
2023/02/04 02:36:46;;;;;;;32.13;4.75;;;;;;;;;;4965809;28;20118;-67
2023/02/04 02:39:11;;;;;;;32.80;5.40;;;;;;;;;;4969243;28;20546;-68
2023/02/04 02:41:37;;;;;;;36.90;4.88;;;;;;;;;;4972059;28;20280;-68
2023/02/04 02:44:02;;;;;;;32.33;4.18;;;;;;;;;;4969309;28;20106;-68
2023/02/04 02:46:27;;;;;;;31.98;4.75;;;;;;;;;;4972659;28;20023;-68
2023/02/04 02:48:53;;;;;;;34.55;5.07;;;;;;;;;;4969897;28;20088;-69
2023/02/04 02:51:18;;;;;;;30.98;5.45;;;;;;;;;;4974809;28;20482;-68
2023/02/04 02:53:44;;;;;;;37.78;6.95;;;;;;;;;;4951011;28;20074;-68
2023/02/04 02:56:09;;;;;;;42.88;5.75;;;;;;;;;;4969077;28;20023;-68
2023/02/04 02:58:35;;;;;;;42.42;5.13;;;;;;;;;;4967994;28;20019;-68
2023/02/04 03:01:01;;;;;;;34.78;4.65;;;;;;;;;;4969553;28;20022;-68
2023/02/04 03:03:27;;;;;;;32.42;5.30;;;;;;;;;;4964081;28;20435;-68
2023/02/04 03:05:58;;;;;;;46.00;5.70;;;;;;;;;;4965836;28;20031;-68
2023/02/04 03:08:24;;;;;;;38.63;4.22;;;;;;;;;;4972735;28;20034;-68
2023/02/04 03:10:49;;;;;;;51.40;6.07;;;;;;;;;;4970774;28;20145;-68
2023/02/04 03:13:15;;;;;;;29.25;4.63;;;;;;;;;;4971036;28;20479;-68
2023/02/04 03:15:41;;;;;;;33.65;4.82;;;;;;;;;;4952982;28;20477;-68
2023/02/04 03:18:06;;;;;;;45.30;6.75;;;;;;;;;;4969539;28;20158;-68
2023/02/04 03:20:32;;;;;;;31.65;4.55;;;;;;;;;;4972092;28;20029;-68
2023/02/04 03:22:57;;;;;;;35.45;4.72;;;;;;;;;;4968771;28;20092;-68
2023/02/04 03:25:25;;;;;;;40.65;8.40;;;;;;;;;;4963291;28;20037;-68
2023/02/04 03:27:52;;;;;;;32.30;4.35;;;;;;;;;;4969944;28;20022;-68
2023/02/04 03:30:18;;;;;;;30.60;5.18;;;;;;;;;;4967562;28;20015;-68
2023/02/04 03:32:43;;;;;;;31.50;4.43;;;;;;;;;;4972059;28;20022;-67
2023/02/04 03:35:08;;;;;;;41.53;5.77;;;;;;;;;;4970006;28;20675;-68
2023/02/04 03:37:33;;;;;;;24.98;4.13;;;;;;;;;;4972631;28;20278;-68
2023/02/04 03:39:59;;;;;;;43.00;5.22;;;;;;;;;;4967669;28;20551;-68
2023/02/04 03:42:24;;;;;;;33.65;3.85;;;;;;;;;;4971257;28;20862;-68
2023/02/04 03:44:49;;;;;;;33.38;4.63;;;;;;;;;;4965734;28;20063;-67
2023/02/04 03:47:14;;;;;;;38.13;4.67;;;;;;;;;;4972500;28;20022;-68
2023/02/04 03:49:40;;;;;;;44.37;4.73;;;;;;;;;;4968950;28;20274;-68
2023/02/04 03:52:05;;;;;;;37.03;3.93;;;;;;;;;;4967652;28;20402;-68
2023/02/04 03:54:30;;;;;;;39.85;5.60;;;;;;;;;;4970858;28;20378;-68
2023/02/04 03:56:55;;;;;;;37.70;5.00;;;;;;;;;;4974608;28;20050;-68
2023/02/04 03:59:20;;;;;;;36.43;5.83;;;;;;;;;;4970640;28;20041;-68
2023/02/04 04:01:46;;;;;;;49.80;4.95;;;;;;;;;;4963316;28;20270;-68
2023/02/04 04:04:11;;;;;;;33.37;4.73;;;;;;;;;;4971176;28;20498;-68
2023/02/04 04:06:36;;;;;;;38.72;5.63;;;;;;;;;;4970329;28;20286;-67
2023/02/04 04:09:01;;;;;;;30.27;4.53;;;;;;;;;;4971570;28;20030;-67
2023/02/04 04:11:26;;;;;;;32.00;5.88;;;;;;;;;;4967618;28;20423;-66
2023/02/04 04:13:52;;;;;;;32.47;5.20;;;;;;;;;;4968666;28;20022;-68
2023/02/04 04:16:17;;;;;;;33.95;4.60;;;;;;;;;;4970451;28;20353;-67
2023/02/04 04:18:42;;;;;;;36.92;4.78;;;;;;;;;;4967690;28;20019;-66
2023/02/04 04:21:07;;;;;;;39.58;4.70;;;;;;;;;;4959813;28;22355;-66
2023/02/04 04:23:32;;;;;;;52.50;5.75;;;;;;;;;;4970348;28;20403;-67
2023/02/04 04:25:58;;;;;;;39.83;5.90;;;;;;;;;;4969115;28;20023;-67
2023/02/04 04:28:23;;;;;;;30.17;5.37;;;;;;;;;;4971681;28;20100;-66
2023/02/04 04:30:48;;;;;;;35.17;4.87;;;;;;;;;;4967848;28;20600;-67
2023/02/04 04:33:13;;;;;;;37.83;5.68;;;;;;;;;;4970954;28;20309;-66
2023/02/04 04:35:38;;;;;;;30.27;3.92;;;;;;;;;;4969615;28;20030;-69
2023/02/04 04:38:03;;;;;;;35.72;5.10;;;;;;;;;;4970419;28;20403;-67
2023/02/04 04:40:29;;;;;;;41.33;5.23;;;;;;;;;;4967917;28;20437;-68
2023/02/04 04:42:54;;;;;;;27.67;5.00;;;;;;;;;;4951763;28;20282;-67
2023/02/04 04:45:19;;;;;;;37.13;3.97;;;;;;;;;;4968115;28;20034;-67
2023/02/04 04:47:45;;;;;;;36.30;5.47;;;;;;;;;;4968543;28;20541;-67
2023/02/04 04:50:10;;;;;;;44.23;4.40;;;;;;;;;;4962390;28;20566;-66
2023/02/04 04:52:35;;;;;;;29.63;4.57;;;;;;;;;;4966782;28;20274;-67
2023/02/04 04:55:01;;;;;;;19.97;4.10;;;;;;;;;;4965915;28;20117;-66
2023/02/04 04:57:26;;;;;;;32.15;4.45;;;;;;;;;;4971503;28;20288;-67
2023/02/04 04:59:51;;;;;;;21.63;3.43;;;;;;;;;;4962894;28;20489;-67
2023/02/04 05:02:16;;;;;;;34.57;5.53;;;;;;;;;;4966582;28;20345;-66
2023/02/04 05:04:41;;;;;;;38.03;4.40;;;;;;;;;;4966148;28;20289;-67
2023/02/04 05:07:07;;;;;;;40.77;4.33;;;;;;;;;;4967749;28;20400;-67
2023/02/04 05:09:32;;;;;;;31.15;4.40;;;;;;;;;;4966731;28;20338;-66
2023/02/04 05:11:57;;;;;;;24.63;3.60;;;;;;;;;;4962980;28;20711;-67
2023/02/04 05:14:22;;;;;;;28.25;3.60;;;;;;;;;;4947622;28;20212;-66
2023/02/04 05:16:47;;;;;;;29.52;4.85;;;;;;;;;;4968560;28;20048;-66
2023/02/04 05:19:13;;;;;;;25.50;5.43;;;;;;;;;;4964434;28;20081;-66
2023/02/04 05:21:38;;;;;;;25.08;4.00;;;;;;;;;;4969068;28;20269;-66
2023/02/04 05:24:05;;;;;;;13.77;3.20;;;;;;;;;;4967816;28;20634;-66
2023/02/04 05:26:30;;;;;;;43.72;6.47;;;;;;;;;;4967033;28;20770;-66
2023/02/04 05:28:55;;;;;;;33.88;4.47;;;;;;;;;;4961486;28;20050;-66
2023/02/04 05:31:20;;;;;;;51.67;5.63;;;;;;;;;;4966828;28;20023;-66
2023/02/04 05:33:46;;;;;;;28.73;4.77;;;;;;;;;;4959259;28;20530;-66
2023/02/04 05:36:11;;;;;;;37.37;5.23;;;;;;;;;;4966744;28;20293;-66
2023/02/04 05:38:36;;;;;;;41.20;4.37;;;;;;;;;;4965596;28;20274;-66
2023/02/04 05:41:01;;;;;;;53.37;5.43;;;;;;;;;;4963835;28;20281;-66
2023/02/04 05:43:26;;;;;;;34.20;5.50;;;;;;;;;;4967777;28;20274;-68
2023/02/04 05:45:51;;;;;;;36.73;4.67;;;;;;;;;;4968034;28;20310;-68
2023/02/04 05:48:17;;;;;;;47.10;5.40;;;;;;;;;;4965715;28;20282;-68
2023/02/04 05:50:42;;;;;;;35.20;4.65;;;;;;;;;;4967174;28;20269;-68
2023/02/04 05:53:07;;;;;;;28.08;4.90;;;;;;;;;;4963325;28;20031;-67
2023/02/04 05:55:32;;;;;;;36.83;5.85;;;;;;;;;;4967226;28;20069;-67
2023/02/04 05:57:58;;;;;;;49.33;4.70;;;;;;;;;;4967030;28;20145;-67
2023/02/04 06:00:23;;;;;;;33.17;5.72;;;;;;;;;;4965231;28;20278;-66
2023/02/04 06:02:48;;;;;;;39.67;6.13;;;;;;;;;;4970187;28;20399;-66
2023/02/04 06:05:13;;;;;;;32.75;5.15;;;;;;;;;;4969116;28;20265;-66
2023/02/04 06:07:38;;;;;;;43.55;6.93;;;;;;;;;;4945762;28;20027;-66
2023/02/04 06:10:04;;;;;;;42.05;5.60;;;;;;;;;;4968217;28;20018;-66
2023/02/04 06:12:29;;;;;;;39.55;5.22;;;;;;;;;;4970877;28;20034;-66
2023/02/04 06:14:55;;;;;;;31.38;4.60;;;;;;;;;;4964841;28;20021;-67
2023/02/04 06:17:20;;;;;;;38.00;6.28;;;;;;;;;;4967077;28;20018;-66
2023/02/04 06:19:45;;;;;;;29.07;4.73;;;;;;;;;;4966773;28;20530;-66
2023/02/04 06:22:10;;;;;;;31.67;5.40;;;;;;;;;;4968739;28;20341;-66
2023/02/04 06:24:35;;;;;;;22.83;4.57;;;;;;;;;;4966634;28;20689;-66
2023/02/04 06:27:00;;;;;;;29.40;7.43;;;;;;;;;;4967799;28;20464;-66
2023/02/04 06:29:26;;;;;;;34.20;5.03;;;;;;;;;;4967398;28;20450;-66
2023/02/04 06:31:51;;;;;;;34.17;5.32;;;;;;;;;;4968973;28;20271;-66
2023/02/04 06:34:16;;;;;;;43.90;5.13;;;;;;;;;;4960867;28;20035;-66
2023/02/04 06:36:41;;;;;;;41.23;4.53;;;;;;;;;;4958137;28;20373;-67
2023/02/04 06:39:06;;;;;;;29.98;5.22;;;;;;;;;;4968167;28;20750;-67
2023/02/04 06:41:32;;;;;;;43.90;6.00;;;;;;;;;;4962605;28;20019;-66
2023/02/04 06:43:57;;;;;;;40.90;5.75;;;;;;;;;;4965851;28;20317;-66
2023/02/04 06:46:22;;;;;;;35.15;5.65;;;;;;;;;;4957302;28;20031;-66
2023/02/04 06:48:47;;;;;;;45.10;6.93;;;;;;;;;;4967394;28;20054;-66
2023/02/04 06:51:13;;;;;;;39.80;5.87;;;;;;;;;;4965376;28;20074;-67
2023/02/04 06:53:39;;;;;;;30.27;4.50;;;;;;;;;;4961852;28;20726;-67
2023/02/04 06:56:04;;;;;;;43.90;5.70;;;;;;;;;;4956544;28;20309;-67
2023/02/04 06:58:29;;;;;;;44.33;5.97;;;;;;;;;;4965916;28;20027;-67
2023/02/04 07:00:54;;;;;;;60.67;9.23;;;;;;;;;;4961922;28;20038;-67
2023/02/04 07:03:19;;;;;;;41.67;6.97;;;;;;;;;;4963954;28;20286;-66
2023/02/04 07:05:45;;;;;;;47.23;5.80;;;;;;;;;;4962883;28;20376;-67
2023/02/04 07:08:10;;;;;;;42.25;6.05;;;;;;;;;;4965337;28;20290;-67
2023/02/04 07:10:35;;;;;;;40.70;5.07;;;;;;;;;;4965430;28;20384;-67
2023/02/04 07:13:01;;;;;;;49.80;7.00;;;;;;;;;;4963044;28;20023;-67
2023/02/04 07:15:26;;;;;;;50.43;5.23;;;;;;;;;;4966957;28;20388;-67
2023/02/04 07:17:52;;;;;;;40.88;5.78;;;;;;;;;;4964569;28;20293;-67
2023/02/04 07:20:17;;;;;;;31.75;5.28;;;;;;;;;;4965815;28;20019;-67
2023/02/04 07:22:43;;;;;;;39.38;5.95;;;;;;;;;;4964139;28;20487;-67
2023/02/04 07:25:08;;;;;;;38.13;6.53;;;;;;;;;;4968273;28;20073;-67
2023/02/04 07:27:34;;;;;;;38.95;6.07;;;;;;;;;;4966408;28;20294;-67
2023/02/04 07:29:59;;;;;;;39.95;5.93;;;;;;;;;;4967901;28;20050;-66
2023/02/04 07:32:26;;;;;;;42.60;8.33;;;;;;;;;;4967658;28;20019;-67
2023/02/04 07:34:51;;;;;;;36.72;6.47;;;;;;;;;;4964743;28;20281;-67
2023/02/04 07:37:19;;;;;;;35.03;6.80;;;;;;;;;;4961483;28;20050;-67
2023/02/04 07:39:44;;;;;;;38.70;8.75;;;;;;;;;;4966608;28;20019;-67
2023/02/04 07:42:09;;;;;;;44.67;10.52;;;;;;;;;;4967483;28;20031;-68
2023/02/04 07:44:36;;;;;;;37.70;6.47;;;;;;;;;;4965390;28;20031;-66
2023/02/04 07:47:01;;;;;;;45.65;6.90;;;;;;;;;;4964449;28;20282;-67
2023/02/04 07:49:27;;;;;;;36.88;6.72;;;;;;;;;;4943453;28;20057;-67
2023/02/04 07:51:53;;;;;;;42.78;6.35;;;;;;;;;;4967384;28;20023;-67
2023/02/04 07:54:18;;;;;;;41.42;6.20;;;;;;;;;;4970014;28;20011;-68
2023/02/04 07:56:43;;;;;;;30.63;5.45;;;;;;;;;;4966855;28;20046;-67
2023/02/04 07:59:08;;;;;;;44.33;6.47;;;;;;;;;;4967168;28;20037;-66
2023/02/04 08:01:33;;;;;;;32.22;5.43;;;;;;;;;;4969127;28;20638;-66
2023/02/04 08:03:58;;;;;;;38.30;7.07;;;;;;;;;;4965739;28;20026;-67
2023/02/04 08:06:24;;;;;;;40.27;7.07;;;;;;;;;;4969081;28;20759;-66
2023/02/04 08:08:49;;;;;;;43.77;6.50;;;;;;;;;;4971808;28;20345;-66
2023/02/04 08:11:14;;;;;;;32.28;6.28;;;;;;;;;;4967375;28;20802;-67
2023/02/04 08:13:39;;;;;;;46.73;8.07;;;;;;;;;;4965477;28;20029;-66
2023/02/04 08:16:04;;;;;;;57.10;8.13;;;;;;;;;;4971360;28;20278;-66
2023/02/04 08:18:30;;;;;;;36.78;6.50;;;;;;;;;;4964903;28;20353;-67
2023/02/04 08:20:55;;;;;;;41.15;7.30;;;;;;;;;;4966283;28;20081;-66
2023/02/04 08:23:20;;;;;;;42.75;6.07;;;;;;;;;;4964675;28;20035;-67
2023/02/04 08:25:45;;;;;;;40.30;7.88;;;;;;;;;;4972372;28;20030;-67
2023/02/04 08:28:11;;;;;;;42.63;6.78;;;;;;;;;;4967486;28;20097;-66
2023/02/04 08:30:36;;;;;;;53.60;8.07;;;;;;;;;;4963456;28;20018;-67
2023/02/04 08:33:01;;;;;;;38.47;7.30;;;;;;;;;;4960515;28;20030;-67
2023/02/04 08:35:26;;;;;;;56.95;8.10;;;;;;;;;;4967777;28;20289;-67
2023/02/04 08:37:52;;;;;;;41.05;8.05;;;;;;;;;;4964248;28;20019;-66
2023/02/04 08:40:17;;;;;;;45.30;9.52;;;;;;;;;;4963579;28;20455;-67
2023/02/04 08:42:42;;;;;;;52.78;9.32;;;;;;;;;;4961298;28;20050;-67
2023/02/04 08:45:08;;;;;;;46.73;7.27;;;;;;;;;;4973116;28;20641;-67
2023/02/04 08:47:33;;;;;;;52.75;7.47;;;;;;;;;;4962217;28;20274;-67
2023/02/04 08:49:58;;;;;;;48.20;7.05;;;;;;;;;;4967252;28;20450;-67
2023/02/04 08:52:23;;;;;;;38.22;7.38;;;;;;;;;;4945940;28;20023;-67
2023/02/04 08:54:48;;;;;;;47.17;6.97;;;;;;;;;;4956327;28;20023;-67
2023/02/04 08:57:14;;;;;;;45.20;8.03;;;;;;;;;;4960064;28;20035;-67
2023/02/04 08:59:39;;;;;;;41.65;8.75;;;;;;;;;;4960774;28;20284;-67
2023/02/04 09:02:04;;;;;;;40.47;8.32;;;;;;;;;;4965830;28;20021;-67
2023/02/04 09:04:30;;;;;;;46.63;8.77;;;;;;;;;;4957575;28;20070;-67
2023/02/04 09:06:55;;;;;;;52.40;6.90;;;;;;;;;;4966782;28;20420;-67
2023/02/04 09:09:20;;;;;;;42.50;7.83;;;;;;;;;;4965789;28;20031;-67
2023/02/04 09:11:45;;;;;;;48.57;7.80;;;;;;;;;;4964381;28;20803;-67
2023/02/04 09:14:11;;;;;;;37.47;7.72;;;;;;;;;;4966824;28;20437;-67
2023/02/04 09:16:36;;;;;;;39.17;8.05;;;;;;;;;;4964244;28;20067;-66
2023/02/04 09:19:02;;;;;;;51.20;7.50;;;;;;;;;;4963018;28;20402;-66
2023/02/04 09:21:27;;;;;;;61.40;8.82;;;;;;;;;;4961614;28;20030;-66
2023/02/04 09:23:52;;;;;;;56.92;8.43;;;;;;;;;;4968208;28;20023;-67
2023/02/04 09:26:18;;;;;;;35.80;7.18;;;;;;;;;;4959666;28;20026;-67
2023/02/04 09:28:43;;;;;;;38.38;7.40;;;;;;;;;;4962883;28;20026;-67
2023/02/04 09:31:09;;;;;;;47.85;8.52;;;;;;;;;;4962482;28;20475;-67
2023/02/04 09:33:34;;;;;;;35.80;9.05;;;;;;;;;;4954467;28;20828;-67
2023/02/04 09:36:00;;;;;;;59.08;10.25;;;;;;;;;;4961575;28;20023;-67
2023/02/04 09:38:25;;;;;;;42.22;8.32;;;;;;;;;;4963884;28;20041;-67
2023/02/04 09:40:53;;;;;;;45.65;8.73;;;;;;;;;;4965405;28;20392;-67
2023/02/04 09:43:24;;;;;;;50.22;8.35;;;;;;;;;;4965151;28;20023;-67
2023/02/04 09:45:49;;;;;;;44.78;8.82;;;;;;;;;;4964491;28;20397;-67
2023/02/04 09:48:15;;;;;;;44.65;8.80;;;;;;;;;;4962538;28;20027;-67
2023/02/04 09:50:41;;;;;;;44.83;7.68;;;;;;;;;;4961571;28;20023;-67
2023/02/04 09:53:06;;;;;;;43.72;9.57;;;;;;;;;;4960644;28;20038;-67
2023/02/04 09:55:33;;;;;;;53.45;8.80;;;;;;;;;;4959412;28;20027;-67
2023/02/04 09:57:59;;;;;;;43.88;9.25;;;;;;;;;;4956643;28;20518;-67
2023/02/04 10:00:25;;;;;;;64.78;13.02;;;;;;;;;;4966518;28;20117;-67
2023/02/04 10:02:50;;;;;;;52.25;10.23;;;;;;;;;;4956197;28;20034;-67
2023/02/04 10:05:23;;;;;;;50.03;11.80;;;;;;;;;;4960205;28;20026;-67
2023/02/04 10:07:48;;;;;;;51.25;12.65;;;;;;;;;;4957390;28;20035;-68
2023/02/04 10:10:17;;;;;;;62.85;11.32;;;;;;;;;;4960824;28;20538;-66
2023/02/04 10:12:43;;;;;;;58.03;12.13;;;;;;;;;;4961742;28;20018;-68
2023/02/04 10:15:12;;;;;;;43.67;12.23;;;;;;;;;;4962898;28;20378;-66
2023/02/04 10:17:38;;;;;;;46.93;13.07;;;;;;;;;;4962485;28;20051;-66
2023/02/04 10:20:03;;;;;;;64.28;13.20;;;;;;;;;;4969053;28;20084;-68
2023/02/04 10:22:28;;;;;;;51.30;12.23;;;;;;;;;;4969316;28;20065;-67
2023/02/04 10:24:53;;;;;;;52.22;13.10;;;;;;;;;;4961167;28;20050;-67
2023/02/04 10:27:18;;;;;;;62.23;13.30;;;;;;;;;;4965507;28;20110;-67
2023/02/04 10:29:56;;;;;;;63.80;15.88;;;;;;;;;;4968791;28;20730;-67
2023/02/04 10:32:29;;;;;;;65.60;14.52;;;;;;;;;;4966221;28;20041;-67
2023/02/04 10:34:58;;;;;;;51.33;14.63;;;;;;;;;;4950633;28;20036;-67
2023/02/04 10:37:24;;;;;;;51.33;14.73;;;;;;;;;;4963893;28;20530;-67
2023/02/04 10:39:50;;;;;;;58.28;14.85;;;;;;;;;;4966910;28;20026;-67
2023/02/04 10:42:20;;;;;;;44.67;13.60;;;;;;;;;;4966038;28;20018;-67
2023/02/04 10:44:45;;;;;;;55.95;12.82;;;;;;;;;;4966121;28;20035;-67
2023/02/04 10:47:15;;;;;;;61.50;13.68;;;;;;;;;;4966353;28;20037;-67
2023/02/04 10:49:50;;;;;;;55.95;15.13;;;;;;;;;;5007195;23;20057;-67
2023/02/04 10:52:16;;;;;;;58.15;15.93;;;;;;;;;;4987113;28;20027;-67
2023/02/04 10:54:41;;;;;;;54.42;15.25;;;;;;;;;;4984751;28;20504;-66
2023/02/04 10:57:12;;;;;;;65.70;15.43;;;;;;;;;;4981798;28;20495;-67
2023/02/04 10:59:37;;;;;;;55.05;14.50;;;;;;;;;;4973052;28;20023;-66
2023/02/04 11:02:22;;;;;;;50.10;14.30;;;;;;;;;;4970720;28;20360;-67
2023/02/04 11:04:48;;;;;;;45.63;13.18;;;;;;;;;;4970038;28;20027;-66
2023/02/04 11:07:13;;;;;;;50.80;13.25;;;;;;;;;;4972720;28;20027;-69
2023/02/04 11:09:42;;;;;;;65.05;15.93;;;;;;;;;;4974547;28;20011;-66
2023/02/04 11:12:18;;;;;;;62.28;15.10;;;;;;;;;;4965947;28;20022;-66
2023/02/04 11:14:53;;;;;;;62.50;14.43;;;;;;;;;;4970008;28;20471;-67
2023/02/04 11:17:19;;;;;;;50.47;12.32;;;;;;;;;;4955653;28;20033;-68
2023/02/04 11:19:44;;;;;;;44.42;10.90;;;;;;;;;;4972252;28;20039;-67
2023/02/04 11:22:21;;;;;;;43.75;10.63;;;;;;;;;;4969800;28;20679;-67
2023/02/04 11:24:47;;;;;;;52.22;13.68;;;;;;;;;;4971058;28;20110;-68
2023/02/04 11:27:19;;;;;;;59.83;13.35;;;;;;;;;;4969667;28;20097;-67
2023/02/04 11:29:46;;;;;;;62.50;14.25;;;;;;;;;;4973394;28;20027;-67
2023/02/04 11:32:30;;;;;;;52.67;13.85;;;;;;;;;;4970567;28;20554;-67
2023/02/04 11:35:11;;;;;;;43.20;12.70;;;;;;;;;;4971161;28;20073;-67
2023/02/04 11:37:36;;;;;;;;;;;;;;;;;;4969968;28;20019;-67
2023/02/04 11:40:12;;;;;;;60.55;14.45;;;;;;;;;;4971817;28;19961;-68
2023/02/04 11:42:39;;;;;;;68.00;14.77;;;;;;;;;;4971568;28;20034;-67
2023/02/04 11:45:27;;;;;;;48.22;13.68;;;;;;;;;;4968959;28;20074;-67
2023/02/04 11:47:55;;;;;;;55.65;13.80;;;;;;;;;;4963253;28;20085;-67
2023/02/04 11:50:23;;;;;;;47.53;13.35;;;;;;;;;;4971370;28;20027;-67
2023/02/04 11:52:49;;;;;;;66.65;14.90;;;;;;;;;;4971765;28;20031;-67
2023/02/04 11:55:14;;;;;;;61.17;14.07;;;;;;;;;;4970388;28;20357;-67
2023/02/04 11:57:40;;;;;;;45.13;13.30;;;;;;;;;;4969199;28;20027;-67
2023/02/04 12:00:12;;;;;;;51.30;13.35;;;;;;;;;;4972831;28;20027;-67
2023/02/04 12:02:42;;;;;;;49.35;14.77;;;;;;;;;;4973647;28;20023;-67
2023/02/04 12:05:10;;;;;;;63.08;13.48;;;;;;;;;;4968349;28;20031;-67
2023/02/04 12:07:35;;;;;;;51.63;13.68;;;;;;;;;;4971840;28;20102;-67
2023/02/04 12:10:10;;;;;;;66.45;15.57;;;;;;;;;;4972989;28;20480;-67
2023/02/04 12:12:40;;;;;;;62.33;14.65;;;;;;;;;;4966520;28;20018;-67
2023/02/04 12:15:19;;;;;;;62.47;16.15;;;;;;;;;;4972085;28;20027;-67
2023/02/04 12:17:45;;;;;;;62.42;13.82;;;;;;;;;;4970127;28;20022;-67
2023/02/04 12:20:11;;;;;;;53.78;13.88;;;;;;;;;;4972819;28;20098;-67
2023/02/04 12:22:36;;;;;;;47.80;13.57;;;;;;;;;;4973223;28;20431;-67
2023/02/04 12:25:01;;;;;;;66.70;13.63;;;;;;;;;;4971261;28;20027;-67
2023/02/04 12:27:26;;;;;;;53.37;12.63;;;;;;;;;;4973430;28;20058;-67
2023/02/04 12:29:52;;;;;;;57.60;14.63;;;;;;;;;;4972513;28;20258;-67
2023/02/04 12:32:17;;;;;;;59.40;12.98;;;;;;;;;;4972834;28;20019;-67
2023/02/04 12:34:42;;;;;;;49.43;13.03;;;;;;;;;;4971707;28;20102;-67
2023/02/04 12:37:07;;;;;;;56.92;12.77;;;;;;;;;;4955099;28;20627;-67
2023/02/04 12:39:33;;;;;;;60.40;16.27;;;;;;;;;;4972631;28;20023;-67
2023/02/04 12:41:58;;;;;;;51.65;15.15;;;;;;;;;;4972380;28;20030;-67
2023/02/04 12:44:23;;;;;;;57.63;14.53;;;;;;;;;;4969944;28;20054;-67
2023/02/04 12:46:48;;;;;;;48.92;16.27;;;;;;;;;;4970322;28;20592;-67
2023/02/04 12:49:14;;;;;;;64.75;17.23;;;;;;;;;;4972234;28;20501;-67
2023/02/04 12:51:39;;;;;;;58.20;14.80;;;;;;;;;;4971676;28;20023;-67
2023/02/04 12:54:04;;;;;;;64.03;16.10;;;;;;;;;;4972444;28;20527;-67
2023/02/04 12:56:29;;;;;;;52.22;14.70;;;;;;;;;;4963886;28;20466;-67
2023/02/04 12:58:55;;;;;;;38.97;12.93;;;;;;;;;;4970960;28;20016;-67
2023/02/04 13:01:20;;;;;;;43.20;13.60;;;;;;;;;;4969042;28;20027;-67
2023/02/04 13:03:45;;;;;;;57.80;12.63;;;;;;;;;;4972234;28;20763;-67
2023/02/04 13:06:10;;;;;;;34.10;11.87;;;;;;;;;;4971793;28;20258;-67
2023/02/04 13:08:35;;;;;;;58.13;14.10;;;;;;;;;;4971694;28;20623;-67
2023/02/04 13:11:01;;;;;;;50.08;12.95;;;;;;;;;;4971132;28;20306;-67
2023/02/04 13:13:26;;;;;;;62.78;14.95;;;;;;;;;;4970971;28;20046;-67
2023/02/04 13:15:51;;;;;;;50.23;14.20;;;;;;;;;;4971041;28;20007;-69
2023/02/04 13:18:17;;;;;;;38.07;11.87;;;;;;;;;;4976005;28;20374;-67
2023/02/04 13:20:42;;;;;;;40.63;11.27;;;;;;;;;;4976001;28;20758;-67
2023/02/04 13:23:07;;;;;;;57.95;10.55;;;;;;;;;;4965903;28;20054;-67
2023/02/04 13:25:32;;;;;;;45.73;11.03;;;;;;;;;;4969349;28;20133;-67
2023/02/04 13:27:58;;;;;;;55.40;13.25;;;;;;;;;;4969911;28;20293;-67
2023/02/04 13:30:23;;;;;;;37.60;11.10;;;;;;;;;;4969730;28;20026;-67
2023/02/04 13:32:48;;;;;;;59.65;12.95;;;;;;;;;;4971707;28;20026;-67
2023/02/04 13:35:13;;;;;;;54.90;13.35;;;;;;;;;;4967542;28;20042;-67
2023/02/04 13:37:39;;;;;;;37.13;11.93;;;;;;;;;;4969339;28;20022;-67
2023/02/04 13:40:05;;;;;;;43.38;12.98;;;;;;;;;;4969167;28;20391;-68
2023/02/04 13:42:30;;;;;;;45.00;13.15;;;;;;;;;;4969468;28;20045;-67
2023/02/04 13:44:55;;;;;;;52.00;12.70;;;;;;;;;;4969298;28;20038;-67
2023/02/04 13:47:20;;;;;;;47.63;13.10;;;;;;;;;;4969923;28;20857;-67
2023/02/04 13:49:46;;;;;;;54.38;11.90;;;;;;;;;;4966718;28;20475;-67
2023/02/04 13:52:11;;;;;;;36.78;12.98;;;;;;;;;;4968369;28;20019;-67
2023/02/04 13:54:36;;;;;;;43.50;12.57;;;;;;;;;;4970330;28;20034;-67
2023/02/04 13:57:01;;;;;;;39.10;12.33;;;;;;;;;;4964976;28;20270;-67
2023/02/04 13:59:26;;;;;;;30.42;12.40;;;;;;;;;;4968208;28;20770;-67
2023/02/04 14:01:52;;;;;;;43.73;13.57;;;;;;;;;;4967851;28;20076;-67
2023/02/04 14:04:17;;;;;;;46.80;13.00;;;;;;;;;;4965145;28;20282;-67
2023/02/04 14:06:42;;;;;;;44.53;13.37;;;;;;;;;;4966522;28;21129;-67
2023/02/04 14:09:08;;;;;;;41.33;11.10;;;;;;;;;;4966541;28;20270;-67
2023/02/04 14:11:34;;;;;;;51.95;13.27;;;;;;;;;;4968904;28;20082;-67
2023/02/04 14:13:59;;;;;;;41.70;14.40;;;;;;;;;;4964933;28;20070;-68
2023/02/04 14:16:24;;;;;;;41.10;11.90;;;;;;;;;;4968104;28;20023;-67
2023/02/04 14:18:49;;;;;;;35.80;13.47;;;;;;;;;;4966231;28;20270;-67